Time;durP1;ratioP1;P1;durP2;ratioP2;P2;SDS_P1;SDS_P2;PMS_P1;PMS_P2;Temp;Humidity;BMP_temperature;BMP_pressure;BME280_temperature;BME280_humidity;BME280_pressure;Samples;Min_cycle;Max_cycle;Signal;HPM_P1;HPM_P2
2023/12/14 00:01:42;;;;;;;5.47;3.63;;;17.20;71.90;;;;;;4943588;27;44799;-61
2023/12/14 00:04:09;;;;;;;4.80;3.33;;;17.20;72.00;;;;;;4990119;27;44748;-61
2023/12/14 00:06:37;;;;;;;6.18;3.45;;;17.20;72.10;;;;;;4984974;27;44680;-61
2023/12/14 00:09:05;;;;;;;7.03;4.40;;;17.20;72.10;;;;;;5002074;27;45789;-61
2023/12/14 00:11:32;;;;;;;5.80;3.97;;;17.20;72.10;;;;;;4973958;27;44595;-61
2023/12/14 00:14:08;;;;;;;5.68;4.03;;;17.20;72.30;;;;;;4976601;27;44965;-61
2023/12/14 00:16:36;;;;;;;5.10;3.38;;;17.20;72.20;;;;;;5008172;27;44939;-61
2023/12/14 00:19:12;;;;;;;5.60;3.70;;;17.20;72.30;;;;;;5002552;27;46430;-61
2023/12/14 00:21:42;;;;;;;6.22;4.03;;;17.20;72.40;;;;;;5003184;27;44573;-61
2023/12/14 00:24:09;;;;;;;6.00;4.05;;;17.20;72.30;;;;;;4988940;27;44743;-61
2023/12/14 00:26:38;;;;;;;7.18;4.05;;;17.20;72.40;;;;;;4960464;27;44830;-61
2023/12/14 00:29:11;;;;;;;5.90;3.78;;;17.20;72.40;;;;;;4997586;27;46132;-61
2023/12/14 00:31:45;;;;;;;7.97;5.18;;;17.20;72.40;;;;;;4980122;27;44799;-61
2023/12/14 00:34:14;;;;;;;7.50;4.53;;;17.20;72.50;;;;;;5025656;27;44587;-61
2023/12/14 00:36:43;;;;;;;6.78;4.30;;;17.20;72.60;;;;;;4986874;27;44738;-61
2023/12/14 00:39:20;;;;;;;6.13;4.50;;;17.10;72.60;;;;;;4985717;27;46639;-61
2023/12/14 00:41:55;;;;;;;6.38;4.68;;;17.20;72.80;;;;;;4998189;27;44486;-61
2023/12/14 00:44:31;;;;;;;6.32;4.60;;;17.10;72.60;;;;;;4997797;27;44870;-61
2023/12/14 00:47:10;;;;;;;7.68;4.65;;;17.20;72.90;;;;;;4982981;27;44723;-61
2023/12/14 00:49:39;;;;;;;6.40;4.90;;;17.10;72.80;;;;;;5008875;27;46173;-61
2023/12/14 00:52:22;;;;;;;7.60;4.70;;;17.20;72.80;;;;;;5009416;27;44765;-61
2023/12/14 00:55:16;;;;;;;6.43;4.35;;;17.10;72.80;;;;;;5012375;27;45038;-61
2023/12/14 00:57:44;;;;;;;7.47;4.88;;;17.20;72.80;;;;;;5017351;27;44742;-61
2023/12/14 01:00:12;;;;;;;6.85;4.57;;;17.20;72.80;;;;;;4966553;27;46227;-61
2023/12/14 01:02:40;;;;;;;7.40;4.90;;;17.20;72.90;;;;;;4990818;27;44896;-61
2023/12/14 01:05:09;;;;;;;6.65;4.40;;;17.20;72.90;;;;;;4986608;27;44897;-61
2023/12/14 01:08:15;;;;;;;7.05;4.57;;;17.20;72.90;;;;;;5002281;27;44990;-61
2023/12/14 01:10:44;;;;;;;6.22;4.00;;;17.20;72.80;;;;;;4978087;27;46395;-61
2023/12/14 01:13:11;;;;;;;7.45;4.68;;;17.20;72.80;;;;;;5002842;27;44666;-61
2023/12/14 01:15:56;;;;;;;6.70;4.43;;;17.20;72.60;;;;;;4978455;27;44925;-61
2023/12/14 01:18:37;;;;;;;7.00;4.60;;;17.20;72.90;;;;;;4985995;27;45016;-61
2023/12/14 01:21:20;;;;;;;7.10;4.35;;;17.20;72.70;;;;;;5029815;27;46274;-60
2023/12/14 01:23:56;;;;;;;7.45;4.82;;;17.20;72.60;;;;;;4997483;27;45044;-60
2023/12/14 01:26:33;;;;;;;7.68;4.90;;;17.20;72.40;;;;;;5007741;27;44779;-61
2023/12/14 01:29:16;;;;;;;7.18;4.80;;;17.20;72.50;;;;;;4974240;27;44742;-60
2023/12/14 01:31:57;;;;;;;6.70;4.32;;;17.20;72.50;;;;;;4974319;27;46591;-60
2023/12/14 01:37:06;;;;;;;7.63;4.53;;;17.10;72.10;;;;;;4931159;27;44856;-60
2023/12/14 01:39:55;;;;;;;7.55;4.47;;;17.10;71.20;;;;;;4955721;27;44840;-60
2023/12/14 01:42:23;;;;;;;8.45;4.63;;;17.10;71.10;;;;;;4965222;27;46577;-60
2023/12/14 01:44:51;;;;;;;6.90;4.28;;;17.10;71.00;;;;;;4950608;27;44780;-60
2023/12/14 01:47:18;;;;;;;5.95;4.20;;;17.10;70.70;;;;;;4952017;27;44716;-60
2023/12/14 01:49:47;;;;;;;6.90;4.20;;;17.10;70.40;;;;;;4927544;27;45553;-60
2023/12/14 01:52:14;;;;;;;6.50;4.18;;;17.10;70.40;;;;;;4933134;27;46222;-60
2023/12/14 01:54:41;;;;;;;6.05;4.18;;;17.10;70.00;;;;;;4931033;27;44772;-60
2023/12/14 01:57:30;;;;;;;6.97;4.20;;;17.10;69.80;;;;;;4955269;27;44794;-60
2023/12/14 02:00:30;;;;;;;6.30;4.15;;;17.10;69.40;;;;;;4919109;27;44814;-60
2023/12/14 02:02:58;;;;;;;6.70;3.95;;;17.10;69.40;;;;;;4941866;27;45789;-60
2023/12/14 02:05:28;;;;;;;5.95;4.03;;;17.10;69.00;;;;;;4915065;27;44729;-60
2023/12/14 02:07:55;;;;;;;7.32;4.20;;;17.10;68.90;;;;;;4936517;27;44910;-59
2023/12/14 02:10:23;;;;;;;6.93;4.40;;;17.10;68.70;;;;;;4943029;27;44886;-60
2023/12/14 02:12:50;;;;;;;6.35;4.43;;;17.10;68.70;;;;;;4911683;27;46500;-60
2023/12/14 02:15:18;;;;;;;7.28;4.85;;;17.00;68.20;;;;;;4917853;27;44883;-60
2023/12/14 02:17:45;;;;;;;5.95;4.43;;;17.00;68.20;;;;;;4914555;27;44870;-60
2023/12/14 02:20:12;;;;;;;5.88;4.22;;;17.00;68.00;;;;;;4928615;27;44880;-60
2023/12/14 02:23:03;;;;;;;8.05;5.05;;;17.00;68.00;;;;;;4948534;27;45594;-60
2023/12/14 02:25:34;;;;;;;8.10;4.60;;;17.00;67.70;;;;;;4928533;27;45737;-59
2023/12/14 02:28:02;;;;;;;6.72;4.18;;;17.00;68.00;;;;;;4936549;27;44817;-60
2023/12/14 02:30:30;;;;;;;8.38;4.82;;;17.00;67.60;;;;;;4935019;27;44784;-59
2023/12/14 02:32:59;;;;;;;9.23;4.88;;;17.00;67.60;;;;;;4947150;27;46317;-60
2023/12/14 02:38:30;;;;;;;6.90;4.25;;;17.00;67.30;;;;;;4937193;27;44831;-60
2023/12/14 02:41:14;;;;;;;5.25;4.00;;;17.00;67.10;;;;;;4948479;27;44897;-60
2023/12/14 02:43:54;;;;;;;6.20;4.32;;;17.00;67.20;;;;;;4935871;27;46225;-60
2023/12/14 02:46:21;;;;;;;7.13;4.28;;;17.00;67.00;;;;;;4938413;27;44632;-60
2023/12/14 02:48:50;;;;;;;7.53;4.40;;;17.00;67.00;;;;;;4939275;27;45013;-60
2023/12/14 02:51:28;;;;;;;7.70;4.28;;;17.00;66.80;;;;;;4947880;27;44907;-60
2023/12/14 02:53:57;;;;;;;6.13;4.18;;;17.00;66.80;;;;;;4934214;27;46511;-60
2023/12/14 02:56:25;;;;;;;5.18;3.83;;;17.00;66.60;;;;;;4914692;27;44805;-60
2023/12/14 02:58:54;;;;;;;6.85;4.78;;;17.00;66.40;;;;;;4906454;27;44958;-60
2023/12/14 03:01:21;;;;;;;7.50;4.93;;;17.00;66.80;;;;;;4902215;27;44856;-59
2023/12/14 03:03:48;;;;;;;5.70;4.00;;;16.90;66.70;;;;;;4932667;27;46327;-60
2023/12/14 03:06:15;;;;;;;7.82;4.88;;;17.00;66.40;;;;;;4938555;27;44915;-60
2023/12/14 03:08:42;;;;;;;8.00;5.40;;;16.90;66.30;;;;;;4955907;27;44761;-60
2023/12/14 03:13:54;;;;;;;6.47;4.45;;;16.90;66.40;;;;;;4944955;27;45502;-60
2023/12/14 03:16:21;;;;;;;8.95;5.45;;;16.90;66.40;;;;;;4938285;27;44935;-60
2023/12/14 03:18:52;;;;;;;7.68;5.25;;;16.90;66.10;;;;;;4939613;27;44811;-60
2023/12/14 03:21:31;;;;;;;7.65;5.22;;;16.90;65.80;;;;;;4946363;27;44836;-60
2023/12/14 03:23:57;;;;;;;8.07;5.38;;;16.90;65.60;;;;;;4924515;27;46555;-60
2023/12/14 03:26:26;;;;;;;8.05;5.22;;;16.90;65.70;;;;;;4937122;27;44738;-60
2023/12/14 03:28:59;;;;;;;6.78;4.68;;;16.90;65.40;;;;;;4954810;27;44915;-60
2023/12/14 03:31:32;;;;;;;7.75;5.07;;;16.90;65.20;;;;;;4930642;27;44753;-60
2023/12/14 03:34:14;;;;;;;8.70;5.35;;;16.90;65.00;;;;;;4933152;27;46319;-60
2023/12/14 03:36:41;;;;;;;9.20;5.07;;;16.90;64.90;;;;;;4941929;27;44808;-60
2023/12/14 03:39:10;;;;;;;8.50;4.93;;;16.90;64.80;;;;;;4941955;27;44785;-60
2023/12/14 03:41:38;;;;;;;7.15;4.80;;;16.90;64.90;;;;;;4932299;27;44778;-60
2023/12/14 03:44:06;;;;;;;7.75;5.22;;;16.90;64.90;;;;;;4936482;27;46329;-60
2023/12/14 03:46:35;;;;;;;7.75;4.97;;;16.90;64.90;;;;;;4939493;27;45288;-60
2023/12/14 03:49:03;;;;;;;6.95;4.80;;;16.90;64.90;;;;;;4944258;27;44872;-60
2023/12/14 03:51:34;;;;;;;6.10;4.40;;;16.90;64.80;;;;;;4946230;27;44918;-60
2023/12/14 03:54:04;;;;;;;6.47;4.57;;;16.90;64.60;;;;;;4941833;27;47119;-60
2023/12/14 03:56:45;;;;;;;6.32;4.63;;;16.90;65.60;;;;;;4914712;27;44985;-60
2023/12/14 03:59:13;;;;;;;7.13;4.97;;;16.90;64.20;;;;;;4939901;27;44847;-60
2023/12/14 04:01:42;;;;;;;8.32;4.70;;;16.90;64.10;;;;;;4951386;27;44901;-60
2023/12/14 04:04:22;;;;;;;6.53;4.55;;;16.90;63.90;;;;;;4954882;27;46310;-60
2023/12/14 04:06:48;;;;;;;7.13;4.82;;;16.90;63.60;;;;;;4939484;27;44717;-60
2023/12/14 04:09:15;;;;;;;7.20;4.70;;;16.90;63.80;;;;;;4960360;27;44854;-60
2023/12/14 04:11:42;;;;;;;8.48;5.15;;;16.90;63.80;;;;;;4950454;27;45160;-60
2023/12/14 04:14:12;;;;;;;6.20;4.63;;;16.90;63.60;;;;;;4946294;27;46730;-60
2023/12/14 04:16:40;;;;;;;7.20;4.95;;;16.90;63.80;;;;;;4929985;27;44928;-60
2023/12/14 04:19:20;;;;;;;5.68;3.97;;;16.90;63.30;;;;;;4920547;27;44910;-60
2023/12/14 04:22:06;;;;;;;6.80;4.65;;;16.90;63.30;;;;;;4945680;27;44773;-60
2023/12/14 04:24:35;;;;;;;5.97;4.50;;;16.90;63.40;;;;;;4954668;27;45314;-60
2023/12/14 04:27:08;;;;;;;6.47;4.30;;;16.90;63.20;;;;;;4950805;27;45142;-60
2023/12/14 04:29:41;;;;;;;6.15;3.63;;;16.90;63.20;;;;;;4923115;27;44920;-60
2023/12/14 04:32:08;;;;;;;6.72;4.30;;;16.90;62.90;;;;;;4908995;27;45108;-60
2023/12/14 04:34:51;;;;;;;7.40;4.80;;;16.90;62.80;;;;;;4940113;27;46471;-60
2023/12/14 04:37:18;;;;;;;5.75;4.13;;;16.90;62.60;;;;;;4945114;27;44858;-60
2023/12/14 04:42:41;;;;;;;5.63;4.25;;;16.90;62.60;;;;;;4935796;27;44886;-60
2023/12/14 04:48:06;;;;;;;7.38;4.78;;;16.80;62.40;;;;;;4923112;27;44850;-60
2023/12/14 04:50:33;;;;;;;6.55;4.30;;;16.90;62.40;;;;;;4940460;27;44812;-60
2023/12/14 04:53:00;;;;;;;6.78;5.03;;;16.80;62.20;;;;;;4938646;27;44953;-60
2023/12/14 04:55:34;;;;;;;7.30;4.93;;;16.80;62.30;;;;;;4929920;27;46406;-60
2023/12/14 04:58:06;;;;;;;7.35;5.07;;;16.80;62.30;;;;;;4934609;27;44855;-60
2023/12/14 05:00:47;;;;;;;7.85;4.93;;;16.80;62.10;;;;;;4948115;27;44773;-60
2023/12/14 05:03:14;;;;;;;6.72;5.07;;;16.80;61.90;;;;;;4920759;27;44899;-60
2023/12/14 05:08:37;;;;;;;8.23;5.55;;;16.80;61.90;;;;;;4930625;27;44839;-61
2023/12/14 05:11:28;;;;;;;7.18;5.18;;;16.80;61.70;;;;;;4939383;27;44841;-60
2023/12/14 05:14:16;;;;;;;6.90;4.65;;;16.90;61.60;;;;;;4960701;27;44866;-60
2023/12/14 05:16:44;;;;;;;8.02;5.32;;;16.90;61.50;;;;;;4949996;27;46241;-60
2023/12/14 05:19:12;;;;;;;6.72;4.50;;;16.80;61.50;;;;;;4934926;27;44720;-60
2023/12/14 05:21:41;;;;;;;7.45;5.20;;;16.80;61.60;;;;;;4941632;27;45036;-60
2023/12/14 05:24:11;;;;;;;7.53;5.25;;;16.80;61.70;;;;;;4951215;27;44669;-60
2023/12/14 05:26:38;;;;;;;7.82;5.38;;;16.80;61.60;;;;;;4944126;27;46362;-61
2023/12/14 05:29:05;;;;;;;9.77;5.60;;;16.70;61.70;;;;;;4923561;27;44851;-60
2023/12/14 05:31:48;;;;;;;6.82;4.97;;;16.70;61.70;;;;;;4939126;27;44764;-60
2023/12/14 05:34:17;;;;;;;8.77;5.60;;;16.70;61.60;;;;;;4936246;27;45031;-60
2023/12/14 05:37:04;;;;;;;5.88;4.60;;;16.70;62.00;;;;;;4966945;27;46556;-60
2023/12/14 05:39:36;;;;;;;7.28;5.03;;;16.70;62.40;;;;;;4925150;27;44951;-60
2023/12/14 05:42:17;;;;;;;7.45;5.10;;;16.80;62.90;;;;;;4926663;27;45000;-60
2023/12/14 05:44:45;;;;;;;8.68;5.78;;;16.80;63.10;;;;;;4914839;27;45031;-60
2023/12/14 05:47:12;;;;;;;8.07;5.53;;;16.80;62.60;;;;;;4939653;27;46158;-60
2023/12/14 05:49:43;;;;;;;8.57;5.32;;;16.80;61.90;;;;;;4928057;27;44870;-60
2023/12/14 05:52:11;;;;;;;7.82;5.95;;;16.80;61.60;;;;;;4929608;27;44997;-60
2023/12/14 05:54:38;;;;;;;8.13;5.28;;;16.80;61.30;;;;;;4929903;27;44898;-61
2023/12/14 05:57:06;;;;;;;9.07;5.72;;;16.80;60.90;;;;;;4936987;27;47088;-60
2023/12/14 05:59:48;;;;;;;7.22;5.20;;;16.70;60.80;;;;;;4923495;27;44970;-60
2023/12/14 06:02:15;;;;;;;7.13;4.85;;;16.80;60.90;;;;;;4923792;27;44931;-61
2023/12/14 06:04:43;;;;;;;9.48;5.60;;;16.70;61.20;;;;;;4946650;27;45131;-61
2023/12/14 06:07:12;;;;;;;10.45;6.45;;;16.80;63.20;;;;;;4941273;27;46223;-61
2023/12/14 06:09:49;;;;;;;10.05;6.45;;;16.70;62.60;;;;;;4958819;27;44887;-60
2023/12/14 06:12:17;;;;;;;8.90;6.07;;;16.70;62.10;;;;;;4925230;27;44860;-60
2023/12/14 06:14:44;;;;;;;9.43;6.05;;;16.70;61.60;;;;;;4939620;27;45070;-60
2023/12/14 06:17:13;;;;;;;9.27;6.65;;;16.70;61.60;;;;;;4930927;27;46329;-60
2023/12/14 06:19:40;;;;;;;9.80;6.55;;;16.60;61.10;;;;;;4934480;27;45084;-59
2023/12/14 06:22:50;;;;;;;10.02;6.13;;;16.70;61.40;;;;;;4959107;27;44884;-60
2023/12/14 06:25:18;;;;;;;8.50;5.35;;;16.70;61.90;;;;;;4992496;27;44938;-60
2023/12/14 06:27:45;;;;;;;9.60;6.25;;;16.70;62.10;;;;;;4977349;27;46595;-60
2023/12/14 06:30:13;;;;;;;9.88;6.53;;;16.70;62.20;;;;;;4987151;27;44963;-60
2023/12/14 06:32:43;;;;;;;9.52;6.25;;;16.70;62.30;;;;;;4963806;27;45075;-59
2023/12/14 06:35:31;;;;;;;11.80;6.30;;;16.70;62.60;;;;;;5008642;27;45031;-59
2023/12/14 06:38:06;;;;;;;9.52;5.70;;;16.80;62.90;;;;;;4955832;27;46141;-60
2023/12/14 06:40:33;;;;;;;7.85;5.60;;;16.80;63.10;;;;;;4989390;27;45097;-59
2023/12/14 06:43:01;;;;;;;9.50;5.65;;;16.80;63.20;;;;;;4984280;27;44961;-59
2023/12/14 06:45:28;;;;;;;8.27;5.63;;;16.80;63.20;;;;;;4986121;27;44902;-59
2023/12/14 06:47:56;;;;;;;9.25;5.80;;;16.80;63.20;;;;;;4991786;27;46484;-59
2023/12/14 06:50:47;;;;;;;7.47;5.20;;;16.80;63.30;;;;;;4981447;27;44819;-59
2023/12/14 06:53:15;;;;;;;8.40;5.70;;;16.80;63.30;;;;;;4977656;27;44694;-59
2023/12/14 06:56:05;;;;;;;7.45;5.40;;;16.80;63.40;;;;;;4983424;27;44894;-59
2023/12/14 06:58:35;;;;;;;7.18;5.00;;;16.80;63.40;;;;;;4988981;27;47010;-59
2023/12/14 07:01:02;;;;;;;8.55;4.75;;;16.80;63.50;;;;;;4970611;27;44747;-59
2023/12/14 07:03:32;;;;;;;8.15;5.25;;;16.80;63.60;;;;;;4995637;27;44929;-59
2023/12/14 07:05:59;;;;;;;6.53;4.80;;;16.80;63.70;;;;;;4963402;27;45017;-59
2023/12/14 07:08:33;;;;;;;6.38;4.60;;;16.80;63.80;;;;;;4982301;27;45266;-59
2023/12/14 07:11:04;;;;;;;6.60;4.47;;;16.80;63.80;;;;;;5034783;27;44798;-59
2023/12/14 07:13:33;;;;;;;6.43;4.78;;;16.80;63.70;;;;;;4978983;27;44718;-59
2023/12/14 07:16:17;;;;;;;6.75;4.38;;;16.80;65.00;;;;;;5009736;27;45135;-59
2023/12/14 07:18:45;;;;;;;6.22;4.30;;;16.80;63.90;;;;;;4985480;27;46029;-59
2023/12/14 07:21:26;;;;;;;6.97;5.00;;;16.80;64.00;;;;;;4976395;27;44802;-59
2023/12/14 07:26:35;;;;;;;7.13;4.65;;;16.90;64.10;;;;;;4961341;27;44841;-59
2023/12/14 07:29:02;;;;;;;6.78;4.50;;;16.80;64.30;;;;;;4987526;27;46137;-59
2023/12/14 07:31:33;;;;;;;5.65;3.88;;;16.90;64.30;;;;;;4997371;27;44735;-59
2023/12/14 07:34:04;;;;;;;5.82;4.15;;;16.90;64.40;;;;;;5011471;27;44949;-59
2023/12/14 07:36:34;;;;;;;6.72;4.43;;;16.90;64.40;;;;;;5014084;27;44686;-59
2023/12/14 07:39:10;;;;;;;5.68;4.07;;;16.90;64.30;;;;;;4987421;27;46579;-59
2023/12/14 07:41:53;;;;;;;5.82;4.10;;;16.90;64.10;;;;;;5005588;27;44949;-59
2023/12/14 07:44:25;;;;;;;6.30;3.85;;;16.90;64.10;;;;;;4995731;27;44819;-59
2023/12/14 07:47:00;;;;;;;5.85;4.05;;;16.90;64.20;;;;;;4984739;27;44957;-59
2023/12/14 07:49:28;;;;;;;6.68;4.20;;;16.90;64.20;;;;;;4989131;27;46132;-59
2023/12/14 07:51:58;;;;;;;6.70;4.10;;;16.90;64.20;;;;;;5001752;27;44814;-59
2023/12/14 07:54:38;;;;;;;6.25;4.40;;;16.90;64.10;;;;;;4983900;27;44956;-59
2023/12/14 07:57:05;;;;;;;6.47;4.30;;;16.90;64.20;;;;;;4986297;27;44728;-59
2023/12/14 07:59:50;;;;;;;5.32;3.70;;;16.80;64.20;;;;;;4983653;27;45790;-59
2023/12/14 08:02:17;;;;;;;6.25;4.38;;;16.90;64.20;;;;;;4975081;27;44757;-59
2023/12/14 08:04:44;;;;;;;6.63;4.47;;;16.90;64.20;;;;;;4980203;27;44572;-59
2023/12/14 08:07:13;;;;;;;5.90;4.18;;;16.90;64.20;;;;;;4999711;27;44546;-59
2023/12/14 08:09:51;;;;;;;4.97;3.65;;;16.90;64.20;;;;;;5034487;27;45430;-59
2023/12/14 08:12:18;;;;;;;5.25;4.20;;;16.90;64.20;;;;;;4974353;27;44865;-59
2023/12/14 08:14:47;;;;;;;5.30;3.90;;;16.90;64.10;;;;;;4988800;27;44884;-59
2023/12/14 08:17:16;;;;;;;5.50;3.85;;;16.90;64.30;;;;;;4985141;27;44963;-59
2023/12/14 08:19:43;;;;;;;5.88;4.22;;;16.90;64.40;;;;;;4995118;27;46530;-59
2023/12/14 08:22:12;;;;;;;4.90;3.60;;;16.90;64.30;;;;;;4989129;27;44913;-59
2023/12/14 08:24:43;;;;;;;4.80;3.90;;;16.90;64.30;;;;;;4996631;27;44778;-59
2023/12/14 08:27:10;;;;;;;5.18;3.72;;;16.90;64.10;;;;;;4987428;27;45238;-59
2023/12/14 08:29:38;;;;;;;6.30;4.43;;;16.90;64.00;;;;;;4992391;27;45410;-59
2023/12/14 08:32:23;;;;;;;5.38;3.97;;;16.90;63.90;;;;;;5025044;27;44902;-59
2023/12/14 08:34:53;;;;;;;6.55;4.10;;;16.90;63.70;;;;;;5011880;27;44946;-59
2023/12/14 08:37:25;;;;;;;4.70;3.55;;;16.90;63.80;;;;;;4992221;27;45049;-59
2023/12/14 08:39:59;;;;;;;4.55;3.28;;;16.90;65.00;;;;;;4987704;27;46901;-59
2023/12/14 08:42:39;;;;;;;4.57;3.75;;;16.90;64.00;;;;;;5003283;27;44530;-59
2023/12/14 08:45:16;;;;;;;4.93;3.70;;;16.90;64.00;;;;;;4986084;27;44875;-59
2023/12/14 08:51:30;;;;;;;5.90;4.18;;;16.90;64.00;;;;;;4964127;27;45379;-59
2023/12/14 08:54:09;;;;;;;4.63;3.60;;;16.90;63.80;;;;;;4979562;27;44716;-59
2023/12/14 08:56:45;;;;;;;5.03;3.58;;;16.90;63.80;;;;;;5027666;27;44645;-59
2023/12/14 08:59:14;;;;;;;4.97;3.70;;;16.90;64.00;;;;;;5025948;27;44903;-59
2023/12/14 09:01:58;;;;;;;4.68;3.67;;;16.90;64.00;;;;;;5035516;27;46380;-59
2023/12/14 09:04:27;;;;;;;4.85;3.53;;;16.90;64.00;;;;;;4983588;27;44726;-59
2023/12/14 09:07:10;;;;;;;5.03;3.85;;;16.80;63.90;;;;;;4988380;27;45044;-59
2023/12/14 09:09:39;;;;;;;6.00;4.10;;;16.90;63.90;;;;;;4986813;27;44731;-59
2023/12/14 09:15:01;;;;;;;6.30;4.55;;;16.90;63.70;;;;;;4973256;27;44923;-60
2023/12/14 09:17:47;;;;;;;5.10;3.80;;;16.90;63.90;;;;;;5021003;27;44823;-59
2023/12/14 09:20:14;;;;;;;5.90;4.13;;;16.90;63.50;;;;;;4989003;27;45035;-59
2023/12/14 09:23:00;;;;;;;6.20;3.92;;;16.90;63.40;;;;;;4994264;27;45839;-59
2023/12/14 09:25:28;;;;;;;6.30;3.95;;;16.90;63.50;;;;;;5000616;27;44950;-59
2023/12/14 09:27:56;;;;;;;4.75;3.63;;;16.80;63.50;;;;;;4967708;27;44925;-59
2023/12/14 09:30:23;;;;;;;5.88;3.60;;;16.80;63.40;;;;;;4989334;27;44813;-59
2023/12/14 09:32:50;;;;;;;4.97;3.65;;;16.80;63.40;;;;;;4988279;27;45882;-59
2023/12/14 09:35:18;;;;;;;4.60;3.70;;;16.80;63.30;;;;;;4991303;27;44875;-59
2023/12/14 09:37:46;;;;;;;4.38;3.35;;;16.90;63.30;;;;;;4998613;27;44863;-59
2023/12/14 09:40:16;;;;;;;4.63;3.60;;;16.90;63.40;;;;;;5009641;27;44781;-59
2023/12/14 09:42:46;;;;;;;6.40;4.07;;;16.90;63.30;;;;;;5032733;27;47052;-59
2023/12/14 09:45:50;;;;;;;4.95;3.55;;;16.90;63.20;;;;;;4985195;27;44963;-59
2023/12/14 09:48:50;;;;;;;4.95;3.70;;;16.90;63.10;;;;;;4994934;27;45161;-59
2023/12/14 09:51:19;;;;;;;4.32;3.17;;;16.90;63.20;;;;;;4997881;27;45237;-59
2023/12/14 09:53:50;;;;;;;4.78;3.58;;;16.90;63.50;;;;;;5010917;27;45963;-59
2023/12/14 09:56:19;;;;;;;4.82;3.58;;;16.90;63.50;;;;;;4989395;27;45095;-59
2023/12/14 09:58:46;;;;;;;4.00;3.00;;;16.90;63.50;;;;;;4997774;27;44991;-59
2023/12/14 10:01:31;;;;;;;4.75;3.40;;;16.90;63.60;;;;;;4985340;27;44777;-59
2023/12/14 10:04:11;;;;;;;3.95;3.13;;;16.90;63.60;;;;;;4973574;27;45349;-59
2023/12/14 10:06:40;;;;;;;4.70;3.53;;;16.90;63.70;;;;;;5001076;27;45005;-59
2023/12/14 10:09:13;;;;;;;4.28;3.50;;;16.90;63.50;;;;;;4993385;27;44694;-59
2023/12/14 10:12:04;;;;;;;4.20;3.20;;;16.90;63.40;;;;;;4970560;27;44874;-59
2023/12/14 10:14:34;;;;;;;4.95;3.10;;;16.90;63.50;;;;;;5014326;27;47028;-59
2023/12/14 10:20:21;;;;;;;4.93;3.15;;;16.90;63.50;;;;;;5000850;27;44952;-59
2023/12/14 10:22:52;;;;;;;4.95;3.30;;;16.90;63.50;;;;;;5021392;27;45082;-59
2023/12/14 10:25:30;;;;;;;4.25;3.30;;;16.90;63.50;;;;;;4982823;27;45731;-59
2023/12/14 10:27:59;;;;;;;5.18;3.40;;;16.90;63.50;;;;;;5008632;27;44844;-59
2023/12/14 10:30:30;;;;;;;5.13;3.50;;;16.90;63.50;;;;;;4994916;27;44791;-59
2023/12/14 10:32:58;;;;;;;4.47;3.10;;;16.90;63.60;;;;;;4982235;27;44917;-59
2023/12/14 10:35:29;;;;;;;4.53;3.30;;;16.90;63.50;;;;;;5015156;27;45904;-59
2023/12/14 10:37:59;;;;;;;4.43;3.28;;;16.90;63.40;;;;;;4972458;27;45065;-59
2023/12/14 10:40:46;;;;;;;4.85;3.08;;;16.90;63.40;;;;;;5001972;27;44787;-59
2023/12/14 10:43:36;;;;;;;4.22;3.13;;;16.90;63.50;;;;;;5012308;27;44915;-59
2023/12/14 10:48:58;;;;;;;4.13;3.08;;;16.90;63.50;;;;;;4959371;27;44772;-59
2023/12/14 10:51:37;;;;;;;4.35;3.38;;;16.90;63.30;;;;;;4974431;27;44889;-59
2023/12/14 10:54:06;;;;;;;3.72;3.28;;;16.90;63.30;;;;;;4987215;27;44714;-59
2023/12/14 10:56:34;;;;;;;4.72;3.55;;;16.90;63.30;;;;;;4978489;27;45398;-59
2023/12/14 10:59:04;;;;;;;4.25;3.15;;;16.90;63.20;;;;;;4981602;27;44918;-59
2023/12/14 11:01:34;;;;;;;3.97;2.83;;;16.90;63.30;;;;;;4999442;27;45192;-60
2023/12/14 11:04:16;;;;;;;4.80;3.65;;;16.90;63.30;;;;;;4999011;27;44742;-59
2023/12/14 11:06:47;;;;;;;4.60;3.20;;;16.90;63.30;;;;;;5002918;27;46251;-60
2023/12/14 11:09:27;;;;;;;3.33;2.83;;;16.90;63.40;;;;;;5020086;27;45047;-60
2023/12/14 11:12:09;;;;;;;4.30;3.30;;;16.90;63.30;;;;;;5016421;27;44883;-60
2023/12/14 11:15:01;;;;;;;3.58;3.00;;;16.90;63.20;;;;;;4995239;27;44860;-60
2023/12/14 11:17:34;;;;;;;3.42;2.92;;;16.90;62.90;;;;;;5012948;27;45840;-60
2023/12/14 11:20:33;;;;;;;3.95;3.00;;;16.90;63.10;;;;;;5018997;27;44988;-60
2023/12/14 11:23:54;;;;;;;3.60;2.83;;;16.90;63.00;;;;;;5017659;27;44798;-60
2023/12/14 11:26:28;;;;;;;3.20;2.40;;;16.90;63.00;;;;;;5000898;27;45226;-60
2023/12/14 11:29:34;;;;;;;3.15;2.63;;;16.90;63.10;;;;;;5036918;27;45876;-60
2023/12/14 11:32:16;;;;;;;2.55;2.35;;;16.90;63.10;;;;;;5007194;27;44801;-60
2023/12/14 11:34:43;;;;;;;3.55;2.42;;;17.00;63.10;;;;;;4996399;27;44976;-60
2023/12/14 11:37:12;;;;;;;4.00;2.97;;;17.00;63.20;;;;;;4997388;27;45093;-60
2023/12/14 11:39:54;;;;;;;3.20;2.50;;;17.00;63.20;;;;;;5000381;27;46100;-60
2023/12/14 11:42:25;;;;;;;2.70;2.05;;;17.00;63.20;;;;;;4987535;27;44768;-60
2023/12/14 11:45:14;;;;;;;3.95;2.40;;;17.00;63.00;;;;;;5018494;27;44876;-60
2023/12/14 11:47:44;;;;;;;3.28;2.60;;;17.00;63.10;;;;;;5041433;27;45104;-60
2023/12/14 11:50:12;;;;;;;3.15;2.30;;;17.00;63.10;;;;;;4984765;27;46631;-60
2023/12/14 11:52:39;;;;;;;4.35;2.75;;;17.00;63.10;;;;;;4999685;27;45077;-60
2023/12/14 11:55:07;;;;;;;3.10;2.53;;;17.00;63.30;;;;;;5014056;27;44944;-60
2023/12/14 11:57:37;;;;;;;3.17;2.30;;;17.00;63.30;;;;;;4979468;27;44727;-60
2023/12/14 12:00:29;;;;;;;4.05;2.60;;;17.00;63.50;;;;;;5009902;27;46340;-60
2023/12/14 12:03:09;;;;;;;3.55;2.70;;;16.90;63.60;;;;;;5009318;27;45004;-60
2023/12/14 12:05:38;;;;;;;3.97;2.83;;;16.90;63.70;;;;;;4997170;27;44991;-60
2023/12/14 12:08:30;;;;;;;3.53;2.42;;;16.90;63.70;;;;;;4977072;27;44944;-60
2023/12/14 12:11:00;;;;;;;3.75;2.72;;;16.90;62.80;;;;;;4982605;27;46142;-60
2023/12/14 12:13:29;;;;;;;2.95;2.50;;;16.90;62.00;;;;;;4981450;27;44639;-60
2023/12/14 12:15:56;;;;;;;4.88;2.63;;;16.90;62.40;;;;;;4974759;27;45086;-60
2023/12/14 12:18:30;;;;;;;2.50;1.85;;;16.90;62.40;;;;;;4980609;27;44851;-60
2023/12/14 12:21:06;;;;;;;2.95;2.13;;;16.90;62.70;;;;;;4978200;27;45600;-60
2023/12/14 12:23:33;;;;;;;3.38;2.40;;;16.90;62.70;;;;;;4976228;27;44824;-60
2023/12/14 12:26:25;;;;;;;3.55;2.30;;;16.90;62.80;;;;;;4983058;27;44775;-60
2023/12/14 12:29:15;;;;;;;3.42;2.10;;;16.90;62.90;;;;;;4981647;27;45069;-60
2023/12/14 12:31:44;;;;;;;3.08;2.40;;;16.90;62.80;;;;;;4974300;27;46275;-60
2023/12/14 12:34:13;;;;;;;2.97;2.38;;;16.90;62.90;;;;;;4983099;27;44820;-60
2023/12/14 12:36:40;;;;;;;2.17;1.90;;;16.90;62.90;;;;;;4991698;27;44799;-60
2023/12/14 12:39:08;;;;;;;2.58;2.00;;;16.90;62.80;;;;;;4985353;27;44949;-60
2023/12/14 12:42:02;;;;;;;3.85;2.17;;;16.90;62.90;;;;;;5011754;27;45192;-60
2023/12/14 12:44:32;;;;;;;3.13;2.20;;;16.90;62.90;;;;;;4995044;27;44788;-60
2023/12/14 12:47:11;;;;;;;2.05;1.85;;;16.90;63.00;;;;;;4986746;27;44864;-60
2023/12/14 12:50:09;;;;;;;2.35;1.90;;;16.90;63.00;;;;;;4992908;27;44998;-60
2023/12/14 12:52:38;;;;;;;2.47;1.80;;;16.90;62.80;;;;;;4994300;27;45006;-60
2023/12/14 12:55:06;;;;;;;2.60;1.83;;;16.90;62.90;;;;;;4983909;27;44771;-60
2023/12/14 12:57:35;;;;;;;2.35;1.70;;;16.90;63.00;;;;;;5003100;27;44803;-60
2023/12/14 20:33:36;;;;;;;5.75;3.15;;;17.60;56.20;;;;;;4959578;27;45182;-58
2023/12/14 20:36:33;;;;;;;6.40;3.50;;;17.00;56.70;;;;;;4984626;27;45398;-58
2023/12/14 20:42:03;;;;;;;5.65;3.40;;;16.90;56.60;;;;;;4902273;27;45471;-58
2023/12/14 20:45:01;;;;;;;5.72;3.40;;;16.90;56.50;;;;;;4956376;27;45686;-58
2023/12/14 20:47:52;;;;;;;4.68;3.40;;;16.80;56.40;;;;;;4954609;27;45065;-58
2023/12/14 20:50:47;;;;;;;7.55;3.50;;;16.80;56.40;;;;;;4949088;27;45820;-58
2023/12/14 20:53:24;;;;;;;6.30;3.45;;;16.80;56.50;;;;;;4960981;27;45055;-58
2023/12/14 20:55:53;;;;;;;5.90;3.60;;;16.80;56.50;;;;;;4955349;27;48020;-58
2023/12/14 20:58:20;;;;;;;4.75;3.20;;;16.80;56.60;;;;;;4946670;27;45820;-58
2023/12/14 21:00:46;;;;;;;5.97;3.72;;;16.80;56.60;;;;;;4946981;27;45492;-58
2023/12/14 21:08:36;;;;;;;6.55;3.25;;;16.80;56.60;;;;;;4927826;27;45715;-58
2023/12/14 21:11:24;;;;;;;4.60;3.15;;;16.80;56.60;;;;;;4939849;27;45244;-58
2023/12/14 21:13:54;;;;;;;6.28;3.28;;;16.80;56.90;;;;;;4947820;27;45657;-58
2023/12/14 21:16:22;;;;;;;5.00;3.35;;;16.70;56.80;;;;;;4947827;27;46112;-58
2023/12/14 21:18:48;;;;;;;5.47;3.60;;;16.80;57.10;;;;;;4956522;27;45281;-58
2023/12/14 21:21:42;;;;;;;5.45;3.83;;;16.70;57.00;;;;;;4952672;27;45970;-58
2023/12/14 21:24:40;;;;;;;6.60;3.85;;;16.70;57.20;;;;;;4951553;27;45370;-58
2023/12/14 21:30:08;;;;;;;6.43;3.90;;;16.70;57.30;;;;;;4964765;27;45484;-58
2023/12/14 21:36:13;;;;;;;5.97;3.78;;;16.70;57.50;;;;;;4932396;27;45368;-58
2023/12/14 21:42:12;;;;;;;5.03;3.15;;;16.60;57.60;;;;;;4927288;27;45252;-58
2023/12/14 21:45:06;;;;;;;6.03;4.05;;;16.60;57.70;;;;;;4957480;27;45246;-58